Terminal Aerodrome Forecast
Issued by NWS

Home | Current Version | Previous Version | Text Only | Print | Product List | Glossary On
Versions: 1 2 3 4 5 6 7 8 9 10 11 12 13 14 15 16 17 18 19 20 21 22 23 24 25 26 27 28
000
FTUS42 KFFC 032341
TAFRYY
TAF
KRYY 032341Z 0400/0424 26006KT P6SM SCT035 BKN080
     FM040700 23004KT P6SM VCSH SCT020 BKN035
      TEMPO 0407/0409 VRB10G25KT 4SM -TSRA BR BKN020CB
     FM040900 29007KT P6SM -SHRA SCT020 BKN045
     FM041400 26010G17KT P6SM SCT035 BKN100
     FM041800 26012G20KT P6SM SCT045 BKN100 PROB30 0420/0424 4SM
      -TSRA BR BKN025CB=

USA.gov is the U.S. government's official web portal to all federal, state and local government web resources and services.